createdAt,value
2023-02-19T00:00:51.825Z,7.53
2023-02-19T00:01:53.300Z,7.50
2023-02-19T00:02:54.787Z,7.38
2023-02-19T00:04:01.955Z,7.45
2023-02-19T00:05:03.773Z,7.44
2023-02-19T00:06:07.863Z,7.41
2023-02-19T00:07:09.376Z,7.45
2023-02-19T00:08:10.872Z,7.47
2023-02-19T00:09:14.082Z,7.47
2023-02-19T00:10:15.620Z,7.53
2023-02-19T00:11:19.708Z,7.50
2023-02-19T00:12:21.249Z,7.41
2023-02-19T00:13:22.724Z,7.43
2023-02-19T00:14:24.201Z,7.42
2023-02-19T00:15:25.815Z,7.42
2023-02-19T00:16:38.432Z,7.38
2023-02-19T00:17:39.904Z,7.42
2023-02-19T00:18:42.161Z,7.40
2023-02-19T00:19:43.665Z,7.40
2023-02-19T00:20:45.145Z,7.45
2023-02-19T00:21:47.368Z,7.43
2023-02-19T00:22:48.839Z,7.50
2023-02-19T00:23:51.913Z,7.55
2023-02-19T00:24:53.430Z,7.56
2023-02-19T00:25:55.423Z,7.54
2023-02-19T00:26:56.940Z,7.56
2023-02-19T00:27:58.460Z,7.49
2023-02-19T00:29:01.321Z,7.50
2023-02-19T00:30:02.991Z,7.53
2023-02-19T00:31:11.232Z,7.51
2023-02-19T00:32:12.970Z,7.54
2023-02-19T00:33:15.470Z,7.49
2023-02-19T00:34:16.988Z,7.56
2023-02-19T00:35:18.505Z,7.60
2023-02-19T00:36:20.814Z,7.66
2023-02-19T00:37:22.365Z,7.69
2023-02-19T00:38:23.874Z,7.67
2023-02-19T00:39:26.209Z,7.64
2023-02-19T00:40:27.745Z,7.63
2023-02-19T00:41:29.538Z,7.59
2023-02-19T00:42:31.072Z,7.62
2023-02-19T00:43:32.593Z,7.58
2023-02-19T00:44:34.092Z,7.55
2023-02-19T00:45:35.612Z,7.61
2023-02-19T00:46:42.970Z,7.62
2023-02-19T00:47:44.911Z,7.67
2023-02-19T00:48:47.244Z,7.71
2023-02-19T00:49:48.780Z,7.81
2023-02-19T00:50:50.252Z,7.90
2023-02-19T00:51:52.937Z,7.93
2023-02-19T00:52:54.463Z,7.91
2023-02-19T00:53:56.104Z,7.87
2023-02-19T00:54:57.686Z,7.85
2023-02-19T00:55:59.197Z,7.86
2023-02-19T00:57:00.756Z,7.82
2023-02-19T00:58:03.120Z,7.87
2023-02-19T00:59:05.029Z,7.86
2023-02-19T01:00:07.168Z,7.83
2023-02-19T01:01:10.536Z,7.80
2023-02-19T01:02:12.258Z,7.81
2023-02-19T01:03:13.810Z,7.83
2023-02-19T01:04:17.169Z,7.83
2023-02-19T01:05:18.711Z,7.81
2023-02-19T01:06:21.709Z,7.85
2023-02-19T01:07:23.236Z,7.86
2023-02-19T01:08:26.237Z,7.90
2023-02-19T01:09:27.752Z,7.88
2023-02-19T01:10:29.285Z,7.87
2023-02-19T01:11:30.875Z,7.83
2023-02-19T01:12:32.449Z,7.83
2023-02-19T01:13:34.387Z,7.82
2023-02-19T01:14:36.484Z,7.82
2023-02-19T01:15:38.665Z,7.77
2023-02-19T01:16:40.199Z,7.71
2023-02-19T01:17:41.841Z,7.71
2023-02-19T01:18:44.105Z,7.74
2023-02-19T01:19:45.865Z,7.79
2023-02-19T01:20:47.399Z,7.80
2023-02-19T01:21:49.012Z,7.81
2023-02-19T01:22:50.538Z,7.73
2023-02-19T01:23:52.530Z,7.77
2023-02-19T01:24:54.045Z,7.78
2023-02-19T01:25:55.516Z,7.75
2023-02-19T01:26:57.042Z,7.67
2023-02-19T01:27:58.560Z,7.55
2023-02-19T01:29:01.137Z,7.48
2023-02-19T01:30:02.836Z,7.47
2023-02-19T01:31:06.653Z,7.40
2023-02-19T01:32:08.376Z,7.41
2023-02-19T01:33:10.288Z,7.36
2023-02-19T01:34:11.793Z,7.40
2023-02-19T01:35:13.404Z,7.40
2023-02-19T01:36:15.642Z,7.50
2023-02-19T01:37:17.168Z,7.53
2023-02-19T01:38:18.743Z,7.48
2023-02-19T01:39:20.225Z,7.50
2023-02-19T01:40:21.865Z,7.44
2023-02-19T01:41:25.198Z,7.44
2023-02-19T01:42:26.717Z,7.44
2023-02-19T01:43:28.445Z,7.50
2023-02-19T01:44:29.891Z,7.55
2023-02-19T01:45:32.189Z,7.53
2023-02-19T01:46:44.043Z,7.48
2023-02-19T01:47:50.953Z,7.49
2023-02-19T01:48:53.431Z,7.54
2023-02-19T01:49:57.387Z,7.54
2023-02-19T01:51:18.388Z,7.53
2023-02-19T01:52:28.537Z,7.55
2023-02-19T01:53:34.352Z,7.55
2023-02-19T01:54:39.977Z,7.58
2023-02-19T01:55:44.583Z,7.61
2023-02-19T01:56:48.924Z,7.66
2023-02-19T01:57:54.359Z,7.69
2023-02-19T01:58:55.968Z,7.73
2023-02-19T02:00:07.921Z,7.67
2023-02-19T02:01:15.297Z,7.59
2023-02-19T02:02:17.358Z,7.52
2023-02-19T02:03:19.714Z,7.50
2023-02-19T02:04:21.247Z,7.51
2023-02-19T02:05:45.409Z,7.54
2023-02-19T02:06:58.208Z,7.56
2023-02-19T02:08:03.117Z,7.62
2023-02-19T02:09:04.662Z,7.65
2023-02-19T02:10:06.563Z,7.71
2023-02-19T02:11:08.453Z,7.78
2023-02-19T02:12:10.714Z,7.74
2023-02-19T02:13:12.890Z,7.72
2023-02-19T02:14:15.044Z,7.72
2023-02-19T02:15:17.834Z,7.68
2023-02-19T02:16:47.043Z,7.66
2023-02-19T02:18:21.321Z,7.58
2023-02-19T02:19:25.593Z,7.51
2023-02-19T02:20:51.594Z,7.42
2023-02-19T02:22:05.499Z,7.43
2023-02-19T02:23:34.888Z,7.46
2023-02-19T02:25:04.313Z,7.51
2023-02-19T02:26:24.427Z,7.49
2023-02-19T02:27:38.353Z,7.51
2023-02-19T02:29:01.464Z,7.46
2023-02-19T02:30:41.856Z,7.35
2023-02-19T02:31:49.794Z,7.34
2023-02-19T02:33:00.994Z,7.34
2023-02-19T02:34:12.357Z,7.34
2023-02-19T02:35:15.241Z,7.35
2023-02-19T02:36:23.483Z,7.31
2023-02-19T02:37:30.225Z,7.33
2023-02-19T02:38:35.442Z,7.36
2023-02-19T02:39:38.812Z,7.35
2023-02-19T02:40:43.072Z,7.40
2023-02-19T02:41:50.619Z,7.43
2023-02-19T02:42:52.154Z,7.43
2023-02-19T02:43:53.663Z,7.45
2023-02-19T02:44:56.637Z,7.49
2023-02-19T02:45:58.496Z,7.51
2023-02-19T02:47:07.105Z,7.54
2023-02-19T02:48:18.619Z,7.54
2023-02-19T02:49:23.772Z,7.56
2023-02-19T02:50:34.333Z,7.56
2023-02-19T02:51:43.835Z,7.59
2023-02-19T02:52:59.444Z,7.59
2023-02-19T02:54:07.198Z,7.54
2023-02-19T02:55:11.648Z,7.49
2023-02-19T02:56:15.593Z,7.44
2023-02-19T02:57:18.760Z,7.37
2023-02-19T02:58:25.400Z,7.34
2023-02-19T02:59:36.973Z,7.23
2023-02-19T03:00:41.047Z,7.21
2023-02-19T03:01:57.202Z,7.18
2023-02-19T03:02:58.979Z,7.16
2023-02-19T03:04:05.779Z,7.17
2023-02-19T03:05:15.949Z,7.17
2023-02-19T03:06:20.634Z,7.17
2023-02-19T03:07:22.169Z,7.13
2023-02-19T03:08:36.092Z,7.15
2023-02-19T03:09:42.126Z,7.17
2023-02-19T03:10:51.559Z,7.16
2023-02-19T03:11:55.057Z,7.14
2023-02-19T03:12:59.064Z,7.13
2023-02-19T03:14:03.209Z,7.12
2023-02-19T03:15:10.540Z,7.08
2023-02-19T03:16:34.950Z,7.12
2023-02-19T03:17:50.605Z,7.14
2023-02-19T03:18:54.402Z,7.15
2023-02-19T03:19:58.493Z,7.13
2023-02-19T03:21:02.419Z,7.08
2023-02-19T03:22:16.833Z,7.07
2023-02-19T03:23:21.594Z,7.05
2023-02-19T03:24:31.361Z,7.07
2023-02-19T03:25:35.788Z,7.12
2023-02-19T03:26:38.888Z,7.13
2023-02-19T03:27:43.189Z,7.11
2023-02-19T03:28:47.489Z,7.10
2023-02-19T03:29:52.597Z,7.09
2023-02-19T03:30:55.814Z,7.11
2023-02-19T03:32:15.326Z,7.14
2023-02-19T03:33:28.473Z,7.22
2023-02-19T03:34:37.891Z,7.28
2023-02-19T03:35:47.292Z,7.33
2023-02-19T03:36:57.834Z,7.39
2023-02-19T03:38:22.949Z,7.43
2023-02-19T03:39:25.904Z,7.44
2023-02-19T03:40:31.324Z,7.47
2023-02-19T03:42:05.524Z,7.49
2023-02-19T03:43:40.966Z,7.41
2023-02-19T03:44:57.246Z,7.42
2023-02-19T03:46:11.626Z,7.47
2023-02-19T03:47:21.192Z,7.49
2023-02-19T03:48:33.096Z,7.49
2023-02-19T03:49:34.440Z,7.49
2023-02-19T03:50:44.911Z,7.48
2023-02-19T03:51:54.528Z,7.47
2023-02-19T03:53:31.351Z,7.47
2023-02-19T03:54:46.180Z,7.50
2023-02-19T03:56:06.023Z,7.53
2023-02-19T03:57:11.464Z,7.55
2023-02-19T03:58:32.231Z,7.56
2023-02-19T03:59:33.940Z,7.57
2023-02-19T04:00:52.648Z,7.55
2023-02-19T04:02:03.743Z,7.50
2023-02-19T04:03:17.795Z,7.44
2023-02-19T04:04:26.231Z,7.43
2023-02-19T04:05:33.448Z,7.44
2023-02-19T04:06:37.431Z,7.48
2023-02-19T04:07:45.092Z,7.50
2023-02-19T04:08:52.564Z,7.53
2023-02-19T04:09:54.631Z,7.51
2023-02-19T04:10:59.169Z,7.47
2023-02-19T04:12:06.381Z,7.44
2023-02-19T04:13:15.839Z,7.31
2023-02-19T04:14:20.602Z,7.29
2023-02-19T04:15:28.636Z,7.14
2023-02-19T04:16:30.531Z,7.12
2023-02-19T04:17:39.167Z,7.09
2023-02-19T04:18:43.991Z,7.11
2023-02-19T04:19:48.834Z,7.13
2023-02-19T04:20:50.553Z,7.12
2023-02-19T04:21:53.377Z,7.18
2023-02-19T04:22:55.985Z,7.23
2023-02-19T04:24:02.461Z,7.26
2023-02-19T04:25:04.415Z,7.30
2023-02-19T04:26:08.071Z,7.38
2023-02-19T04:27:10.058Z,7.42
2023-02-19T04:28:14.304Z,7.46
2023-02-19T04:29:15.965Z,7.47
2023-02-19T04:30:17.695Z,7.49
2023-02-19T04:31:19.817Z,7.55
2023-02-19T04:32:21.409Z,7.59
2023-02-19T04:33:22.933Z,7.60
2023-02-19T04:34:24.462Z,7.62
2023-02-19T04:35:26.052Z,7.66
2023-02-19T04:36:27.582Z,7.58
2023-02-19T04:37:29.093Z,7.55
2023-02-19T04:38:31.357Z,7.59
2023-02-19T04:39:33.408Z,7.57
2023-02-19T04:40:35.007Z,7.57
2023-02-19T04:41:36.541Z,7.53
2023-02-19T04:42:38.093Z,7.55
2023-02-19T04:43:39.623Z,7.50
2023-02-19T04:44:41.110Z,7.50
2023-02-19T04:45:42.645Z,7.50
2023-02-19T04:46:44.165Z,7.47
2023-02-19T04:47:45.704Z,7.48
2023-02-19T04:48:47.244Z,7.53
2023-02-19T04:49:48.730Z,7.59
2023-02-19T04:50:50.238Z,7.66
2023-02-19T04:51:51.757Z,7.65
2023-02-19T04:52:53.274Z,7.67
2023-02-19T04:53:54.812Z,7.70
2023-02-19T04:54:56.321Z,7.74
2023-02-19T04:55:57.845Z,7.81
2023-02-19T04:56:59.365Z,7.84
2023-02-19T04:58:00.904Z,7.85
2023-02-19T04:59:02.752Z,7.78
2023-02-19T05:00:04.716Z,7.71
2023-02-19T05:01:06.918Z,7.71
2023-02-19T05:02:08.593Z,7.61
2023-02-19T05:03:10.117Z,7.58
2023-02-19T05:04:11.679Z,7.55
2023-02-19T05:05:13.224Z,7.49
2023-02-19T05:06:14.793Z,7.42
2023-02-19T05:07:16.348Z,7.48
2023-02-19T05:08:17.909Z,7.49
2023-02-19T05:09:19.526Z,7.44
2023-02-19T05:10:21.101Z,7.41
2023-02-19T05:11:22.604Z,7.39
2023-02-19T05:12:24.099Z,7.40
2023-02-19T05:13:26.046Z,7.41
2023-02-19T05:14:27.580Z,7.41
2023-02-19T05:15:29.082Z,7.37
2023-02-19T05:16:30.599Z,7.33
2023-02-19T05:17:34.935Z,7.28
2023-02-19T05:18:37.033Z,7.25
2023-02-19T05:19:38.517Z,7.27
2023-02-19T05:20:39.997Z,7.28
2023-02-19T05:21:41.485Z,7.23
2023-02-19T05:22:42.999Z,7.26
2023-02-19T05:23:44.571Z,7.25
2023-02-19T05:24:46.089Z,7.23
2023-02-19T05:25:47.676Z,7.23
2023-02-19T05:26:49.143Z,7.24
2023-02-19T05:27:50.667Z,7.24
2023-02-19T05:28:54.167Z,7.27
2023-02-19T05:29:55.677Z,7.23
2023-02-19T05:30:57.525Z,7.22
2023-02-19T05:31:59.074Z,7.24
2023-02-19T05:33:00.642Z,7.26
2023-02-19T05:34:02.208Z,7.28
2023-02-19T05:35:04.180Z,7.25
2023-02-19T05:36:08.528Z,7.25
2023-02-19T05:37:10.037Z,7.23
2023-02-19T05:38:12.068Z,7.20
2023-02-19T05:39:13.576Z,7.16
2023-02-19T05:40:15.114Z,7.14
2023-02-19T05:41:21.933Z,7.14
2023-02-19T05:42:23.434Z,7.16
2023-02-19T05:43:24.934Z,7.19
2023-02-19T05:44:26.547Z,7.22
2023-02-19T05:45:28.093Z,7.22
2023-02-19T05:46:30.065Z,7.21
2023-02-19T05:47:31.658Z,7.19
2023-02-19T05:48:33.986Z,7.21
2023-02-19T05:49:35.602Z,7.19
2023-02-19T05:50:39.703Z,7.15
2023-02-19T05:51:50.792Z,7.17
2023-02-19T05:52:52.414Z,7.15
2023-02-19T05:53:55.321Z,7.20
2023-02-19T05:54:56.791Z,7.22
2023-02-19T05:55:58.239Z,7.24
2023-02-19T05:56:59.783Z,7.23
2023-02-19T05:58:01.351Z,7.23
2023-02-19T05:59:18.911Z,7.22
2023-02-19T06:00:21.330Z,7.20
2023-02-19T06:01:26.294Z,7.20
2023-02-19T06:02:27.806Z,7.22
2023-02-19T06:03:29.325Z,7.20
2023-02-19T06:04:30.823Z,7.25
2023-02-19T06:05:32.345Z,7.28
2023-02-19T06:06:33.888Z,7.27
2023-02-19T06:07:36.073Z,7.27
2023-02-19T06:08:37.547Z,7.29
2023-02-19T06:09:38.933Z,7.30
2023-02-19T06:10:40.667Z,7.28
2023-02-19T06:11:42.212Z,7.29
2023-02-19T06:12:43.873Z,7.27
2023-02-19T06:13:45.787Z,7.26
2023-02-19T06:14:48.166Z,7.24
2023-02-19T06:15:49.666Z,7.21
2023-02-19T06:16:51.206Z,7.24
2023-02-19T06:17:52.732Z,7.26
2023-02-19T06:18:54.302Z,7.24
2023-02-19T06:20:02.110Z,7.27
2023-02-19T06:21:05.964Z,7.26
2023-02-19T06:22:07.828Z,7.27
2023-02-19T06:23:09.313Z,7.28
2023-02-19T06:24:10.791Z,7.28
2023-02-19T06:25:12.319Z,7.26
2023-02-19T06:26:21.281Z,7.27
2023-02-19T06:27:22.824Z,7.29
2023-02-19T06:28:24.397Z,7.28
2023-02-19T06:29:25.955Z,7.31
2023-02-19T06:30:27.602Z,7.30
2023-02-19T06:31:29.213Z,7.30
2023-02-19T06:32:30.873Z,7.31
2023-02-19T06:33:32.735Z,7.29
2023-02-19T06:34:34.797Z,7.28
2023-02-19T06:35:36.571Z,7.29
2023-02-19T06:36:38.090Z,7.25
2023-02-19T06:37:39.577Z,7.25
2023-02-19T06:38:41.587Z,7.26
2023-02-19T06:39:43.078Z,7.26
2023-02-19T06:40:44.601Z,7.23
2023-02-19T06:41:46.100Z,7.27
2023-02-19T06:42:47.585Z,7.27
2023-02-19T06:43:49.118Z,7.25
2023-02-19T06:44:50.602Z,7.25
2023-02-19T06:45:52.138Z,7.29
2023-02-19T06:46:56.687Z,7.28
2023-02-19T06:47:58.207Z,7.25
2023-02-19T06:48:59.756Z,7.28
2023-02-19T06:50:01.282Z,7.34
2023-02-19T06:51:03.493Z,7.34
2023-02-19T06:52:05.109Z,7.29
2023-02-19T06:53:06.618Z,7.31
2023-02-19T06:54:08.267Z,7.32
2023-02-19T06:55:09.787Z,7.34
2023-02-19T06:56:27.609Z,7.32
2023-02-19T06:57:29.140Z,7.36
2023-02-19T06:58:31.652Z,7.37
2023-02-19T06:59:33.227Z,7.33
2023-02-19T07:00:35.196Z,7.32
2023-02-19T07:01:37.579Z,7.33
2023-02-19T07:02:39.059Z,7.39
2023-02-19T07:03:40.548Z,7.38
2023-02-19T07:04:42.130Z,7.40
2023-02-19T07:05:43.679Z,7.39
2023-02-19T07:06:45.221Z,7.39
2023-02-19T07:07:46.721Z,7.42
2023-02-19T07:08:49.070Z,7.43
2023-02-19T07:09:50.556Z,7.43
2023-02-19T07:10:56.619Z,7.48
2023-02-19T07:11:58.194Z,7.48
2023-02-19T07:12:59.661Z,7.44
2023-02-19T07:14:03.241Z,7.42
2023-02-19T07:15:04.912Z,7.44
2023-02-19T07:16:09.398Z,7.49
2023-02-19T07:17:10.919Z,7.50
2023-02-19T07:18:12.393Z,7.51
2023-02-19T07:19:13.993Z,7.52
2023-02-19T07:20:15.601Z,7.54
2023-02-19T07:21:18.026Z,7.54
2023-02-19T07:22:19.503Z,7.57
2023-02-19T07:23:21.115Z,7.59
2023-02-19T07:24:22.596Z,7.49
2023-02-19T07:25:24.090Z,7.49
2023-02-19T07:26:26.004Z,7.47
2023-02-19T07:27:27.509Z,7.41
2023-02-19T07:28:29.161Z,7.41
2023-02-19T07:29:30.712Z,7.43
2023-02-19T07:30:32.309Z,7.39
2023-02-19T07:31:34.034Z,7.38
2023-02-19T07:32:35.598Z,7.38
2023-02-19T07:33:37.189Z,7.41
2023-02-19T07:34:38.694Z,7.43
2023-02-19T07:35:50.863Z,7.49
2023-02-19T07:36:52.358Z,7.53
2023-02-19T07:37:53.950Z,7.59
2023-02-19T07:38:57.082Z,7.63
2023-02-19T07:39:58.671Z,7.59
2023-02-19T07:41:02.679Z,7.58
2023-02-19T07:42:04.276Z,7.58
2023-02-19T07:43:07.118Z,7.60
2023-02-19T07:44:08.634Z,7.59
2023-02-19T07:45:10.184Z,7.57
2023-02-19T07:46:14.177Z,7.61
2023-02-19T07:47:15.664Z,7.68
2023-02-19T07:48:17.710Z,7.71
2023-02-19T07:49:19.188Z,7.73
2023-02-19T07:50:20.666Z,7.78
2023-02-19T07:51:22.488Z,7.78
2023-02-19T07:52:24.044Z,7.79
2023-02-19T07:53:27.375Z,7.81
2023-02-19T07:54:29.044Z,7.79
2023-02-19T07:55:32.127Z,7.84
2023-02-19T07:56:33.659Z,7.90
2023-02-19T07:57:35.169Z,7.92
2023-02-19T07:58:36.714Z,7.95
2023-02-19T07:59:38.225Z,7.96
2023-02-19T08:00:39.768Z,8.00
2023-02-19T08:01:41.287Z,8.03
2023-02-19T08:02:42.858Z,8.05
2023-02-19T08:03:45.385Z,8.08
2023-02-19T08:04:47.800Z,8.06
2023-02-19T08:05:49.625Z,8.12
2023-02-19T08:06:53.062Z,8.15
2023-02-19T08:07:54.725Z,8.18
2023-02-19T08:08:57.146Z,8.16
2023-02-19T08:09:58.704Z,8.15
2023-02-19T08:11:03.237Z,8.16
2023-02-19T08:12:04.923Z,8.21
2023-02-19T08:13:06.482Z,8.22
2023-02-19T08:14:08.152Z,8.21
2023-02-19T08:15:09.645Z,8.19
2023-02-19T08:16:21.736Z,8.19
2023-02-19T08:17:25.848Z,8.23
2023-02-19T08:18:28.925Z,8.14
2023-02-19T08:19:30.466Z,8.16
2023-02-19T08:20:31.923Z,8.15
2023-02-19T08:21:34.452Z,8.16
2023-02-19T08:22:36.056Z,8.06
2023-02-19T08:23:37.893Z,8.09
2023-02-19T08:24:39.419Z,8.01
2023-02-19T08:25:42.434Z,8.00
2023-02-19T08:26:43.941Z,7.99
2023-02-19T08:27:45.437Z,8.07
2023-02-19T08:28:48.517Z,8.14
2023-02-19T08:29:50.017Z,8.16
2023-02-19T08:30:52.097Z,8.18
2023-02-19T08:31:53.736Z,8.19
2023-02-19T08:32:55.381Z,8.23
2023-02-19T08:33:56.935Z,8.28
2023-02-19T08:34:58.432Z,8.30
2023-02-19T08:36:08.128Z,8.33
2023-02-19T08:37:09.602Z,8.37
2023-02-19T08:38:12.698Z,8.39
2023-02-19T08:39:14.200Z,8.38
2023-02-19T08:40:15.775Z,8.41
2023-02-19T08:41:17.418Z,8.42
2023-02-19T08:42:18.891Z,8.46
2023-02-19T08:43:20.416Z,8.49
2023-02-19T08:44:21.889Z,8.54
2023-02-19T08:45:23.368Z,8.56
2023-02-19T08:46:25.002Z,8.58
2023-02-19T08:47:26.509Z,8.61
2023-02-19T08:48:28.181Z,8.62
2023-02-19T08:49:29.721Z,8.63
2023-02-19T08:50:31.701Z,8.65
2023-02-19T08:51:33.181Z,8.69
2023-02-19T08:52:34.560Z,8.69
2023-02-19T08:53:37.581Z,8.69
2023-02-19T08:54:39.130Z,8.71
2023-02-19T08:55:40.617Z,8.74
2023-02-19T08:56:42.115Z,8.75
2023-02-19T08:57:44.063Z,8.74
2023-02-19T08:58:45.804Z,8.72
2023-02-19T08:59:47.420Z,8.70
2023-02-19T09:00:49.069Z,8.65
2023-02-19T09:01:50.578Z,8.62
2023-02-19T09:02:52.078Z,8.57
2023-02-19T09:03:53.639Z,8.49
2023-02-19T09:04:55.176Z,8.43
2023-02-19T09:05:56.674Z,8.41
2023-02-19T09:06:58.205Z,8.38
2023-02-19T09:08:00.012Z,8.39
2023-02-19T09:09:01.498Z,8.33
2023-02-19T09:10:03.990Z,8.34
2023-02-19T09:11:05.752Z,8.33
2023-02-19T09:12:09.548Z,8.34
2023-02-19T09:13:11.056Z,8.36
2023-02-19T09:14:12.520Z,8.38
2023-02-19T09:15:14.278Z,8.30
2023-02-19T09:16:15.818Z,8.22
2023-02-19T09:17:17.536Z,8.20
2023-02-19T09:18:19.037Z,8.18
2023-02-19T09:19:20.515Z,8.05
2023-02-19T09:20:22.182Z,7.99
2023-02-19T09:21:23.755Z,7.99
2023-02-19T09:22:25.393Z,7.96
2023-02-19T09:23:26.964Z,7.92
2023-02-19T09:24:28.475Z,7.91
2023-02-19T09:25:30.022Z,7.84
2023-02-19T09:26:31.528Z,7.82
2023-02-19T09:27:33.032Z,7.88
2023-02-19T09:28:34.824Z,7.93
2023-02-19T09:29:36.348Z,7.92
2023-02-19T09:30:37.890Z,7.96
2023-02-19T09:31:39.465Z,7.97
2023-02-19T09:32:41.062Z,7.98
2023-02-19T09:33:47.276Z,7.98
2023-02-19T09:34:49.783Z,7.99
2023-02-19T09:35:51.307Z,7.98
2023-02-19T09:36:53.361Z,7.95
2023-02-19T09:37:54.888Z,7.91
2023-02-19T09:38:56.404Z,7.94
2023-02-19T09:39:57.905Z,7.94
2023-02-19T09:41:06.042Z,7.86
2023-02-19T09:42:16.572Z,7.84
2023-02-19T09:43:24.483Z,7.91
2023-02-19T09:44:32.176Z,7.91
2023-02-19T09:45:35.777Z,7.85
2023-02-19T09:46:51.431Z,7.77
2023-02-19T09:47:58.174Z,7.66
2023-02-19T09:49:26.347Z,7.51
2023-02-19T09:50:35.878Z,7.40
2023-02-19T09:51:39.833Z,7.43
2023-02-19T09:52:58.495Z,7.40
2023-02-19T09:54:01.270Z,7.43
2023-02-19T09:55:24.856Z,7.38
2023-02-19T09:56:27.406Z,7.29
2023-02-19T09:57:33.045Z,7.24
2023-02-19T09:58:40.594Z,7.24
2023-02-19T09:59:47.564Z,7.19
2023-02-19T10:00:50.218Z,7.17
2023-02-19T10:01:59.437Z,7.07
2023-02-19T10:03:06.560Z,7.06
2023-02-19T10:04:10.470Z,6.94
2023-02-19T10:05:14.390Z,6.84
2023-02-19T10:06:24.716Z,6.94
2023-02-19T10:07:35.089Z,7.01
2023-02-19T10:08:36.597Z,7.03
2023-02-19T10:09:38.655Z,7.03
2023-02-19T10:10:40.225Z,7.11
2023-02-19T10:11:42.104Z,7.12
2023-02-19T10:12:48.551Z,7.12
2023-02-19T10:14:02.763Z,7.11
2023-02-19T10:15:19.084Z,7.10
2023-02-19T10:16:26.237Z,7.13
2023-02-19T10:17:32.398Z,7.16
2023-02-19T10:18:42.425Z,7.17
2023-02-19T10:19:44.190Z,7.22
2023-02-19T10:20:47.374Z,7.16
2023-02-19T10:21:48.935Z,7.21
2023-02-19T10:23:05.720Z,7.21
2023-02-19T10:24:08.652Z,7.26
2023-02-19T10:25:16.851Z,7.35
2023-02-19T10:26:19.452Z,7.39
2023-02-19T10:27:21.130Z,7.43
2023-02-19T10:28:29.882Z,7.35
2023-02-19T10:29:31.365Z,7.40
2023-02-19T10:30:35.677Z,7.45
2023-02-19T10:31:37.352Z,7.56
2023-02-19T10:33:17.395Z,7.54
2023-02-19T10:34:22.111Z,7.61
2023-02-19T10:35:23.716Z,7.61
2023-02-19T10:36:36.149Z,7.52
2023-02-19T10:37:46.493Z,7.53
2023-02-19T10:38:48.381Z,7.32
2023-02-19T10:39:50.652Z,7.24
2023-02-19T10:41:02.679Z,7.23
2023-02-19T10:42:04.371Z,7.26
2023-02-19T10:43:05.882Z,7.29
2023-02-19T10:44:15.337Z,7.14
2023-02-19T10:45:24.046Z,7.11
2023-02-19T10:46:29.302Z,7.07
2023-02-19T10:47:31.938Z,6.99
2023-02-19T10:48:50.220Z,7.03
2023-02-19T10:49:53.187Z,6.96
2023-02-19T10:50:59.480Z,6.90
2023-02-19T10:52:03.006Z,6.78
2023-02-19T10:53:05.407Z,6.71
2023-02-19T10:54:14.619Z,6.65
2023-02-19T10:55:24.419Z,6.71
2023-02-19T10:56:27.833Z,6.68
2023-02-19T10:57:30.544Z,6.58
2023-02-19T10:58:32.116Z,6.57
2023-02-19T10:59:33.711Z,6.49
2023-02-19T11:00:35.322Z,6.43
2023-02-19T11:01:52.683Z,6.49
2023-02-19T11:03:13.803Z,6.43
2023-02-19T11:04:17.834Z,6.38
2023-02-19T11:05:20.187Z,6.29
2023-02-19T11:06:26.566Z,6.23
2023-02-19T11:07:28.432Z,6.20
2023-02-19T11:08:38.526Z,6.17
2023-02-19T11:09:50.287Z,6.19
2023-02-19T11:10:51.894Z,6.24
2023-02-19T11:11:55.185Z,6.35
2023-02-19T11:12:59.940Z,6.36
2023-02-19T11:14:15.169Z,6.28
2023-02-19T11:15:32.284Z,6.36
2023-02-19T11:16:42.893Z,6.39
2023-02-19T11:17:44.513Z,6.43
2023-02-19T11:18:56.834Z,6.47
2023-02-19T11:20:05.661Z,6.57
2023-02-19T11:21:07.845Z,6.57
2023-02-19T11:22:30.428Z,6.53
2023-02-19T11:23:52.178Z,6.55
2023-02-19T11:24:57.809Z,6.56
2023-02-19T11:26:05.060Z,6.58
2023-02-19T11:27:16.814Z,6.59
2023-02-19T11:28:38.494Z,6.58
2023-02-19T11:29:39.984Z,6.55
2023-02-19T11:30:43.449Z,6.54
2023-02-19T11:31:45.253Z,6.54
2023-02-19T11:32:46.896Z,6.53
2023-02-19T11:33:56.828Z,6.55
2023-02-19T11:35:16.980Z,6.57
2023-02-19T11:36:35.916Z,6.57
2023-02-19T11:37:56.172Z,6.45
2023-02-19T11:39:02.430Z,6.47
2023-02-19T11:40:04.890Z,6.41
2023-02-19T11:41:22.834Z,6.44
2023-02-19T11:42:33.064Z,6.37
2023-02-19T11:43:40.162Z,6.31
2023-02-19T11:44:44.595Z,6.25
2023-02-19T11:45:57.928Z,6.28
2023-02-19T11:47:11.667Z,6.25
2023-02-19T11:48:38.045Z,6.17
2023-02-19T11:49:46.818Z,6.15
2023-02-19T11:51:12.784Z,6.13
2023-02-19T11:52:38.718Z,6.15
2023-02-19T11:53:49.791Z,6.19
2023-02-19T11:55:28.724Z,6.13
2023-02-19T11:56:36.149Z,6.09
2023-02-19T11:57:43.967Z,5.94
2023-02-19T11:58:58.514Z,5.86
2023-02-19T12:00:19.614Z,5.83
2023-02-19T12:01:27.223Z,5.87
2023-02-19T12:02:43.999Z,5.91
2023-02-19T12:04:26.757Z,5.97
2023-02-19T12:05:46.766Z,5.90
2023-02-19T12:07:09.926Z,5.88
2023-02-19T12:08:31.052Z,5.71
2023-02-19T12:09:58.673Z,5.67
2023-02-19T12:11:08.896Z,5.61
2023-02-19T12:12:37.858Z,5.66
2023-02-19T12:13:42.509Z,5.65
2023-02-19T12:15:02.399Z,5.67
2023-02-19T12:16:07.925Z,5.59
2023-02-19T12:17:18.594Z,5.67
2023-02-19T12:18:49.601Z,5.81
2023-02-19T12:20:10.312Z,5.73
2023-02-19T12:21:42.976Z,5.67
2023-02-19T12:23:00.046Z,5.65
2023-02-19T12:24:26.391Z,5.59
2023-02-19T12:25:50.772Z,5.61
2023-02-19T12:27:22.712Z,5.60
2023-02-19T12:28:31.996Z,5.48
2023-02-19T12:29:48.860Z,5.41
2023-02-19T12:31:02.472Z,5.35
2023-02-19T12:32:21.144Z,5.33
2023-02-19T12:33:43.972Z,5.30
2023-02-19T12:35:11.669Z,5.25
2023-02-19T12:36:28.362Z,5.28
2023-02-19T12:37:38.825Z,5.31
2023-02-19T12:38:45.217Z,5.23
2023-02-19T12:40:01.323Z,5.29
2023-02-19T12:41:29.580Z,5.27
2023-02-19T12:42:38.951Z,5.25
2023-02-19T12:43:53.740Z,5.23
2023-02-19T12:45:20.945Z,5.32
2023-02-19T12:46:29.362Z,5.35
2023-02-19T12:47:40.624Z,5.30
2023-02-19T12:48:46.823Z,5.24
2023-02-19T12:50:05.631Z,5.30
2023-02-19T12:51:15.947Z,5.32
2023-02-19T12:52:31.582Z,5.31
2023-02-19T12:53:44.193Z,5.32
2023-02-19T12:54:49.395Z,5.29
2023-02-19T12:55:52.490Z,5.17
2023-02-19T12:57:10.581Z,5.24
2023-02-19T12:58:22.270Z,5.29
2023-02-19T12:59:46.249Z,5.29
2023-02-19T13:00:55.552Z,5.14
2023-02-19T13:02:21.859Z,5.18
2023-02-19T13:03:28.529Z,5.05
2023-02-19T13:04:41.451Z,5.09
2023-02-19T13:06:15.210Z,5.16
2023-02-19T13:07:20.113Z,5.17
2023-02-19T13:08:34.767Z,5.17
2023-02-19T13:10:04.135Z,5.27
2023-02-19T13:11:14.575Z,5.14
2023-02-19T13:12:26.869Z,5.01
2023-02-19T13:13:44.117Z,5.06
2023-02-19T13:14:57.861Z,5.13
2023-02-19T13:16:04.147Z,5.13
2023-02-19T13:17:31.963Z,5.07
2023-02-19T13:18:41.926Z,5.03
2023-02-19T13:19:46.819Z,4.98
2023-02-19T13:20:49.225Z,4.98
2023-02-19T13:22:02.057Z,4.92
2023-02-19T13:23:27.820Z,4.96
2023-02-19T13:24:36.483Z,5.02
2023-02-19T13:26:04.270Z,5.02
2023-02-19T13:27:32.231Z,4.99
2023-02-19T13:28:36.782Z,4.92
2023-02-19T13:30:12.161Z,4.93
2023-02-19T13:31:25.946Z,4.95
2023-02-19T13:33:18.551Z,5.09
2023-02-19T13:34:45.326Z,4.99
2023-02-19T13:35:53.026Z,5.04
2023-02-19T13:36:55.626Z,4.99
2023-02-19T13:38:02.918Z,4.99
2023-02-19T13:39:06.307Z,4.97
2023-02-19T13:40:24.999Z,5.03
2023-02-19T13:41:29.789Z,5.02
2023-02-19T13:42:34.310Z,5.04
2023-02-19T13:43:37.310Z,5.06
2023-02-19T13:44:41.064Z,5.10
2023-02-19T13:45:46.119Z,5.15
2023-02-19T13:46:49.591Z,5.19
2023-02-19T13:47:54.083Z,5.19
2023-02-19T13:49:23.427Z,5.10
2023-02-19T13:50:35.141Z,5.19
2023-02-19T13:51:36.544Z,5.23
2023-02-19T13:52:39.660Z,5.16
2023-02-19T13:53:41.169Z,5.02
2023-02-19T13:54:42.681Z,4.87
2023-02-19T13:55:44.143Z,4.86
2023-02-19T13:56:45.799Z,4.87
2023-02-19T13:57:47.386Z,4.88
2023-02-19T13:58:54.393Z,4.91
2023-02-19T13:59:57.680Z,4.86
2023-02-19T14:01:03.765Z,4.81
2023-02-19T14:02:11.262Z,4.87
2023-02-19T14:03:30.101Z,4.80
2023-02-19T14:04:50.422Z,4.88
2023-02-19T14:06:09.050Z,4.97
2023-02-19T14:07:10.497Z,5.00
2023-02-19T14:08:11.964Z,4.93
2023-02-19T14:09:39.580Z,4.85
2023-02-19T14:10:54.465Z,4.77
2023-02-19T14:12:01.628Z,4.76
2023-02-19T14:13:03.152Z,4.71
2023-02-19T14:14:24.589Z,4.57
2023-02-19T14:15:42.688Z,4.56
2023-02-19T14:16:47.144Z,4.52
2023-02-19T14:17:48.622Z,4.55
2023-02-19T14:18:50.272Z,4.46
2023-02-19T14:19:55.821Z,4.44
2023-02-19T14:21:14.235Z,4.43
2023-02-19T14:22:46.868Z,4.40
2023-02-19T14:23:57.963Z,4.39
2023-02-19T14:25:00.707Z,4.38
2023-02-19T14:26:05.710Z,4.37
2023-02-19T14:27:07.369Z,4.42
2023-02-19T14:28:25.452Z,4.42
2023-02-19T14:29:28.743Z,4.42
2023-02-19T14:30:32.991Z,4.37
2023-02-19T14:31:38.301Z,4.41
2023-02-19T14:32:43.569Z,4.45
2023-02-19T14:33:50.612Z,4.31
2023-02-19T14:34:52.799Z,4.27
2023-02-19T14:36:12.276Z,4.28
2023-02-19T14:37:21.546Z,4.27
2023-02-19T14:38:52.836Z,4.34
2023-02-19T14:39:54.673Z,4.35
2023-02-19T14:40:57.054Z,4.38
2023-02-19T14:42:12.348Z,4.32
2023-02-19T14:43:20.024Z,4.35